Time;durP1;ratioP1;P1;durP2;ratioP2;P2;SDS_P1;SDS_P2;PMS_P1;PMS_P2;Temp;Humidity;BMP_temperature;BMP_pressure;BME280_temperature;BME280_humidity;BME280_pressure;Samples;Min_cycle;Max_cycle;Signal;HPM_P1;HPM_P2
2022/01/18 00:01:49;;;;;;;8.45;6.40;;;6.80;99.90;;;;;;6331794;22;20181;-52
2022/01/18 00:04:15;;;;;;;9.00;7.30;;;7.00;99.90;;;;;;6335342;22;20596;-52
2022/01/18 00:06:45;;;;;;;8.25;7.35;;;7.10;99.90;;;;;;6345797;22;20185;-52
2022/01/18 00:09:11;;;;;;;12.27;6.78;;;7.10;99.90;;;;;;6345313;22;20287;-52
2022/01/18 00:11:45;;;;;;;10.20;7.03;;;6.90;99.90;;;;;;6340978;22;20167;-52
2022/01/18 00:14:24;;;;;;;9.90;7.15;;;6.80;99.90;;;;;;6345760;22;20142;-52
2022/01/18 00:17:03;;;;;;;11.57;8.18;;;6.60;99.90;;;;;;6343028;22;20180;-52
2022/01/18 00:19:30;;;;;;;9.00;7.75;;;6.60;99.90;;;;;;6344427;22;20127;-52
2022/01/18 00:22:11;;;;;;;9.20;7.65;;;6.60;99.90;;;;;;6345571;22;20146;-51
2022/01/18 00:24:39;;;;;;;8.77;7.03;;;6.90;99.90;;;;;;6342857;22;20138;-52
2022/01/18 00:27:09;;;;;;;7.60;6.65;;;6.70;99.90;;;;;;6345207;22;20624;-52
2022/01/18 00:29:39;;;;;;;11.40;7.90;;;6.80;99.90;;;;;;6334891;22;20208;-52
2022/01/18 00:34:35;;;;;;;10.20;7.93;;;6.70;99.90;;;;;;6344736;22;20151;-50
2022/01/18 00:37:23;;;;;;;10.57;7.43;;;6.60;99.90;;;;;;6340442;22;20154;-51
2022/01/18 00:39:46;;;;;;;11.43;8.20;;;6.50;99.90;;;;;;6333680;22;20182;-53
2022/01/18 00:42:12;;;;;;;11.40;8.03;;;6.70;99.90;;;;;;6344924;22;20153;-51
2022/01/18 00:44:37;;;;;;;10.53;7.73;;;6.50;99.90;;;;;;6344792;22;20150;-51
2022/01/18 00:47:04;;;;;;;10.30;7.20;;;6.30;99.90;;;;;;6343468;22;20171;-51
2022/01/18 00:49:31;;;;;;;11.00;7.47;;;6.40;99.90;;;;;;6345196;22;20147;-50
2022/01/18 00:51:59;;;;;;;10.13;6.82;;;6.60;99.90;;;;;;6344505;22;20150;-51
2022/01/18 00:54:33;;;;;;;10.60;8.00;;;6.60;99.90;;;;;;6343945;22;20234;-51
2022/01/18 00:56:58;;;;;;;11.07;7.95;;;6.70;99.90;;;;;;6344337;22;20131;-51
2022/01/18 00:59:25;;;;;;;10.57;8.83;;;6.50;99.90;;;;;;6343125;22;20150;-53
2022/01/18 01:01:51;;;;;;;10.90;7.50;;;6.60;99.90;;;;;;6332981;22;20848;-51
2022/01/18 01:04:20;;;;;;;8.68;7.38;;;6.40;99.90;;;;;;6345239;22;20146;-50
2022/01/18 01:06:46;;;;;;;9.05;7.30;;;6.40;99.90;;;;;;6343915;22;20215;-51
2022/01/18 01:09:11;;;;;;;11.00;8.70;;;6.50;99.90;;;;;;6344489;22;20155;-51
2022/01/18 01:11:39;;;;;;;11.57;7.83;;;6.40;99.90;;;;;;6342912;22;20174;-51
2022/01/18 01:14:08;;;;;;;10.18;7.65;;;6.70;99.90;;;;;;6345430;22;20494;-50
2022/01/18 01:17:42;;;;;;;16.33;9.15;;;6.70;99.90;;;;;;6343167;22;20149;-51
2022/01/18 01:19:48;;;;;;;11.45;8.50;;;6.70;99.90;;;;;;6308334;22;20155;-51
2022/01/18 01:46:38;;;;;;;11.73;9.07;;;6.60;99.90;;;;;;6346036;22;20151;-50
2022/01/18 01:49:07;;;;;;;9.80;7.55;;;6.50;99.90;;;;;;6346597;22;20143;-50
2022/01/18 01:51:33;;;;;;;12.20;8.93;;;6.50;99.90;;;;;;6340727;22;20163;-51
2022/01/18 01:54:01;;;;;;;8.60;7.63;;;6.50;99.90;;;;;;6344904;22;20154;-51
2022/01/18 01:56:29;;;;;;;13.13;8.95;;;6.30;99.90;;;;;;6344815;22;20151;-51
2022/01/18 01:58:54;;;;;;;14.48;9.70;;;6.20;99.90;;;;;;6345615;22;20150;-51
2022/01/18 02:01:20;;;;;;;12.93;9.30;;;5.70;99.90;;;;;;6342503;22;20174;-51
2022/01/18 02:03:46;;;;;;;12.90;8.80;;;6.50;99.90;;;;;;6345330;22;20377;-51
2022/01/18 02:06:12;;;;;;;14.10;9.88;;;6.80;99.90;;;;;;6346756;22;20158;-51
2022/01/18 02:08:38;;;;;;;13.98;10.60;;;6.60;99.90;;;;;;6341222;22;20171;-52
2022/01/18 02:11:04;;;;;;;12.97;9.40;;;6.80;99.90;;;;;;6341509;22;20584;-51
2022/01/18 02:13:32;;;;;;;15.77;11.47;;;6.80;99.90;;;;;;6343854;22;20674;-52
2022/01/18 02:23:55;;;;;;;12.20;10.48;;;7.00;99.90;;;;;;6342578;22;20181;-51
2022/01/18 02:26:21;;;;;;;14.80;9.77;;;6.70;99.90;;;;;;6344568;22;20163;-52
2022/01/18 02:28:47;;;;;;;16.17;11.70;;;7.00;99.90;;;;;;6344127;22;20280;-51
2022/01/18 02:31:12;;;;;;;15.50;11.03;;;6.80;99.90;;;;;;6341984;22;20937;-52
2022/01/18 02:33:38;;;;;;;15.03;11.30;;;6.60;99.90;;;;;;6342739;22;20609;-51
2022/01/18 02:36:07;;;;;;;18.80;12.00;;;6.50;99.90;;;;;;6342616;22;20147;-51
2022/01/18 02:38:33;;;;;;;19.55;11.70;;;6.40;99.90;;;;;;6342841;22;20478;-51
2022/01/18 02:40:59;;;;;;;14.65;10.77;;;6.70;99.90;;;;;;6332820;22;20753;-51
2022/01/18 02:44:07;;;;;;;17.40;11.60;;;6.80;99.90;;;;;;6344100;22;20179;-51
2022/01/18 02:46:14;;;;;;;13.15;10.73;;;6.70;99.90;;;;;;6319145;22;20389;-51
2022/01/18 02:48:40;;;;;;;15.87;11.33;;;6.80;99.90;;;;;;6342862;22;20177;-51
2022/01/18 02:51:05;;;;;;;13.37;10.93;;;6.60;99.90;;;;;;6343428;22;20177;-51
2022/01/18 02:53:31;;;;;;;13.70;11.00;;;6.70;99.90;;;;;;6341648;22;20276;-52
2022/01/18 02:55:59;;;;;;;14.65;10.27;;;6.70;99.90;;;;;;6345204;22;20707;-52
2022/01/18 02:58:32;;;;;;;14.85;11.80;;;6.60;99.90;;;;;;6333251;22;20158;-51
2022/01/18 03:03:27;;;;;;;14.30;10.77;;;7.00;99.90;;;;;;6346250;22;20167;-51
2022/01/18 03:05:54;;;;;;;13.10;10.23;;;6.90;99.90;;;;;;6345339;22;20467;-51
2022/01/18 03:08:20;;;;;;;18.63;11.52;;;7.00;99.90;;;;;;6342752;22;20194;-52
2022/01/18 03:10:45;;;;;;;18.30;12.10;;;6.90;99.90;;;;;;6344775;22;20526;-51
2022/01/18 03:13:11;;;;;;;14.00;11.00;;;6.50;99.90;;;;;;6331788;22;20163;-51
2022/01/18 03:15:37;;;;;;;18.40;11.20;;;7.00;99.90;;;;;;6343650;22;20601;-50
2022/01/18 03:18:06;;;;;;;13.53;10.63;;;6.90;99.90;;;;;;6345218;22;20154;-50
2022/01/18 03:20:32;;;;;;;12.43;9.65;;;6.60;99.90;;;;;;6344965;22;20415;-51
2022/01/18 03:22:58;;;;;;;15.33;10.10;;;6.00;99.90;;;;;;6345566;22;20165;-51
2022/01/18 03:25:38;;;;;;;16.67;11.17;;;6.50;99.90;;;;;;6342697;22;20393;-51
2022/01/18 03:28:06;;;;;;;16.92;11.80;;;5.80;99.90;;;;;;6343847;22;20600;-51
2022/01/18 03:30:41;;;;;;;15.25;12.65;;;6.40;99.90;;;;;;6344342;22;20629;-51
2022/01/18 03:33:18;;;;;;;15.68;11.23;;;6.10;99.90;;;;;;6345352;22;20142;-51
2022/01/18 03:35:47;;;;;;;11.55;9.60;;;6.60;99.90;;;;;;6334052;22;20233;-51
2022/01/18 03:38:14;;;;;;;17.13;12.02;;;6.60;99.90;;;;;;6341702;22;20160;-52
2022/01/18 03:40:40;;;;;;;13.23;10.82;;;6.70;99.90;;;;;;6341359;22;20216;-51
2022/01/18 03:43:08;;;;;;;15.43;11.70;;;6.80;99.90;;;;;;6345289;22;20147;-52
2022/01/18 03:45:42;;;;;;;17.00;11.55;;;6.90;99.90;;;;;;6342185;22;20155;-51
2022/01/18 03:48:14;;;;;;;14.15;12.05;;;6.50;99.90;;;;;;6343272;22;20628;-52
2022/01/18 03:50:40;;;;;;;14.32;10.63;;;6.70;99.90;;;;;;6333849;22;20167;-51
2022/01/18 03:53:06;;;;;;;13.73;10.90;;;6.90;99.90;;;;;;6343476;22;20147;-50
2022/01/18 03:55:31;;;;;;;16.17;11.67;;;6.50;99.90;;;;;;6335029;22;20242;-51
2022/01/18 03:57:57;;;;;;;16.37;11.43;;;6.60;99.90;;;;;;6330380;22;20403;-51
2022/01/18 04:00:25;;;;;;;16.47;11.90;;;7.20;99.90;;;;;;6343151;22;20166;-51
2022/01/18 04:02:52;;;;;;;15.27;11.02;;;6.60;99.90;;;;;;6344746;22;20384;-51
2022/01/18 04:05:18;;;;;;;17.38;12.60;;;6.70;99.90;;;;;;6344762;22;20155;-50
2022/01/18 04:07:45;;;;;;;16.25;11.50;;;6.80;99.90;;;;;;6344637;22;20681;-51
2022/01/18 04:10:11;;;;;;;16.30;11.77;;;7.10;99.90;;;;;;6343648;22;20779;-51
2022/01/18 04:12:39;;;;;;;14.52;11.63;;;7.10;99.90;;;;;;6333210;22;20151;-51
2022/01/18 04:15:08;;;;;;;17.77;12.48;;;6.90;99.90;;;;;;6344998;22;20496;-51
2022/01/18 04:28:41;;;;;;;17.55;13.20;;;6.80;99.90;;;;;;6340789;22;20200;-52
2022/01/18 04:31:08;;;;;;;18.30;13.63;;;6.60;99.90;;;;;;6342168;22;20265;-51
2022/01/18 04:33:35;;;;;;;20.73;13.35;;;6.70;99.90;;;;;;6344828;22;20151;-51
2022/01/18 04:36:02;;;;;;;18.45;12.93;;;6.60;99.90;;;;;;6344597;22;20202;-52
2022/01/18 04:38:28;;;;;;;19.83;13.35;;;6.60;99.90;;;;;;6344463;22;20158;-51
2022/01/18 04:40:59;;;;;;;17.80;11.70;;;6.80;99.90;;;;;;6343739;22;20167;-52
2022/01/18 04:48:54;;;;;;;17.77;11.98;;;6.90;99.90;;;;;;6343355;22;20541;-51
2022/01/18 04:51:20;;;;;;;16.85;12.32;;;7.00;99.90;;;;;;6343433;22;20249;-51
2022/01/18 04:53:52;;;;;;;22.10;13.43;;;6.90;99.90;;;;;;6330889;22;20159;-51
2022/01/18 04:56:27;;;;;;;17.70;13.23;;;6.90;99.90;;;;;;6342003;22;20131;-51
2022/01/18 04:58:53;;;;;;;19.05;13.07;;;7.10;99.90;;;;;;6344100;22;20157;-51
2022/01/18 05:01:18;;;;;;;17.83;12.77;;;6.90;99.90;;;;;;6339112;22;20640;-51
2022/01/18 05:03:44;;;;;;;18.90;13.50;;;6.50;99.90;;;;;;6344705;22;20151;-51
2022/01/18 05:06:13;;;;;;;18.40;13.53;;;6.90;99.90;;;;;;6342483;22;20363;-51
2022/01/18 05:08:40;;;;;;;17.00;13.25;;;6.60;99.90;;;;;;6344288;22;20486;-52
2022/01/18 05:11:08;;;;;;;18.23;12.65;;;6.50;99.90;;;;;;6345081;22;20288;-52
2022/01/18 05:21:35;;;;;;;21.88;14.50;;;7.00;99.90;;;;;;6331104;22;20181;-52
2022/01/18 05:24:01;;;;;;;19.73;14.20;;;6.50;99.90;;;;;;6346149;22;20128;-51
2022/01/18 05:26:28;;;;;;;17.83;12.82;;;6.70;99.90;;;;;;6336302;22;20151;-51
2022/01/18 05:28:54;;;;;;;19.15;13.73;;;6.80;99.90;;;;;;6346098;22;20185;-52
2022/01/18 05:31:20;;;;;;;21.35;13.82;;;6.80;99.90;;;;;;6342332;22;20629;-51
2022/01/18 05:33:47;;;;;;;22.27;14.30;;;6.80;99.90;;;;;;6345796;22;20196;-51
2022/01/18 05:36:13;;;;;;;17.13;13.00;;;6.60;99.90;;;;;;6345574;22;20192;-51
2022/01/18 05:38:40;;;;;;;21.30;14.85;;;6.60;99.90;;;;;;6345475;22;20150;-51
2022/01/18 05:41:08;;;;;;;22.88;14.40;;;6.40;99.90;;;;;;6333401;22;20602;-51
2022/01/18 05:43:34;;;;;;;21.40;14.80;;;6.60;99.90;;;;;;6344088;22;20150;-52
2022/01/18 05:46:00;;;;;;;21.97;14.53;;;6.80;99.90;;;;;;6344080;22;20162;-52
2022/01/18 05:48:26;;;;;;;19.30;13.97;;;7.10;99.90;;;;;;6335368;22;20175;-51
2022/01/18 05:50:54;;;;;;;19.92;13.55;;;6.70;99.90;;;;;;6344371;22;20400;-52
2022/01/18 05:53:21;;;;;;;18.60;12.32;;;6.80;99.90;;;;;;6346414;22;20147;-52
2022/01/18 05:55:46;;;;;;;17.58;13.07;;;6.60;99.90;;;;;;6346539;22;20155;-52
2022/01/18 05:58:12;;;;;;;19.40;14.10;;;6.70;99.90;;;;;;6344822;22;20178;-52
2022/01/18 06:00:40;;;;;;;18.63;13.97;;;6.50;99.90;;;;;;6334155;22;20179;-52
2022/01/18 06:03:15;;;;;;;19.00;13.63;;;6.30;99.90;;;;;;6346839;22;20229;-52
2022/01/18 06:08:26;;;;;;;20.23;13.98;;;6.10;99.90;;;;;;6343910;22;20208;-52
2022/01/18 06:10:51;;;;;;;20.43;13.83;;;6.40;99.90;;;;;;6345330;22;20186;-52
2022/01/18 06:13:17;;;;;;;22.23;15.00;;;6.30;99.90;;;;;;6345514;22;20624;-52
2022/01/18 06:15:43;;;;;;;22.23;14.50;;;6.30;99.90;;;;;;6333380;22;20160;-52
2022/01/18 06:18:10;;;;;;;21.05;14.38;;;6.30;99.90;;;;;;6346690;22;20385;-51
2022/01/18 06:20:36;;;;;;;18.30;13.70;;;6.20;99.90;;;;;;6334711;22;20178;-51
2022/01/18 06:23:02;;;;;;;21.47;13.40;;;6.20;99.90;;;;;;6343939;22;20158;-54
2022/01/18 06:25:28;;;;;;;19.48;14.35;;;6.50;99.90;;;;;;6343682;22;20388;-52
2022/01/18 06:27:54;;;;;;;19.83;12.77;;;6.70;99.90;;;;;;6345634;22;20259;-51
2022/01/18 06:30:20;;;;;;;21.10;12.60;;;6.60;99.90;;;;;;6344415;22;20283;-52
2022/01/18 06:32:47;;;;;;;21.40;15.32;;;6.60;99.90;;;;;;6345654;22;20150;-51
2022/01/18 06:35:14;;;;;;;19.02;13.15;;;6.70;99.90;;;;;;6334463;22;20204;-53
2022/01/18 06:37:40;;;;;;;19.45;12.45;;;6.80;99.90;;;;;;6344681;22;20158;-52
2022/01/18 06:40:09;;;;;;;19.60;12.90;;;6.30;99.90;;;;;;6329448;22;20540;-52
2022/01/18 06:42:35;;;;;;;23.70;15.65;;;6.60;99.90;;;;;;6345831;22;20150;-51
2022/01/18 06:45:00;;;;;;;21.77;15.07;;;6.60;99.90;;;;;;6344621;22;20143;-51
2022/01/18 06:47:26;;;;;;;21.23;15.00;;;6.60;99.90;;;;;;6345019;22;20685;-51
2022/01/18 06:49:52;;;;;;;20.75;13.43;;;6.50;99.90;;;;;;6345251;22;20205;-52
2022/01/18 06:52:18;;;;;;;21.23;14.57;;;6.30;99.90;;;;;;6345228;22;20152;-52
2022/01/18 06:54:44;;;;;;;21.17;14.17;;;6.60;99.90;;;;;;6341900;22;20143;-52
2022/01/18 06:57:10;;;;;;;20.63;14.40;;;6.40;99.90;;;;;;6345652;22;20389;-52
2022/01/18 06:59:36;;;;;;;11.93;8.17;;;6.20;99.90;;;;;;6345206;22;20380;-52
2022/01/18 07:02:03;;;;;;;21.37;13.67;;;6.70;99.90;;;;;;6345484;22;20363;-53
2022/01/18 07:04:29;;;;;;;22.38;15.55;;;7.40;99.90;;;;;;6342396;22;20389;-51
2022/01/18 07:06:55;;;;;;;21.63;14.70;;;7.10;99.90;;;;;;6338120;22;20151;-50
2022/01/18 07:09:23;;;;;;;19.90;14.10;;;7.00;99.90;;;;;;6344905;22;20381;-50
2022/01/18 07:11:56;;;;;;;21.67;15.60;;;6.90;99.90;;;;;;6333880;22;20632;-50
2022/01/18 07:14:22;;;;;;;23.90;15.93;;;7.00;99.90;;;;;;6345377;22;20142;-50
2022/01/18 07:16:48;;;;;;;25.55;15.75;;;6.60;99.90;;;;;;6334069;22;20158;-50
2022/01/18 07:19:14;;;;;;;19.52;14.00;;;5.90;99.90;;;;;;6345039;22;20151;-50
2022/01/18 07:21:40;;;;;;;20.67;14.30;;;6.60;99.90;;;;;;6334860;22;20175;-51
2022/01/18 07:24:16;;;;;;;20.27;13.00;;;6.60;99.90;;;;;;6333982;22;20516;-50
2022/01/18 07:26:43;;;;;;;21.00;13.63;;;6.40;99.90;;;;;;6344446;22;20844;-51
2022/01/18 07:29:09;;;;;;;28.58;15.40;;;6.30;99.90;;;;;;6344137;22;20185;-50
2022/01/18 07:31:35;;;;;;;22.13;15.68;;;6.30;99.90;;;;;;6344050;22;20166;-52
2022/01/18 07:34:00;;;;;;;21.43;13.97;;;5.80;99.90;;;;;;6345742;22;20192;-51
2022/01/18 07:36:26;;;;;;;21.63;14.87;;;6.40;99.90;;;;;;6344611;22;20593;-49
2022/01/18 07:38:51;;;;;;;18.47;13.13;;;6.30;99.90;;;;;;6335102;22;20188;-50
2022/01/18 07:41:17;;;;;;;21.63;14.50;;;6.50;99.90;;;;;;6345654;22;20209;-52
2022/01/18 07:43:43;;;;;;;18.83;12.93;;;6.60;99.90;;;;;;6342350;22;20158;-51
2022/01/18 07:46:09;;;;;;;17.88;13.10;;;6.50;99.90;;;;;;6331260;22;20737;-52
2022/01/18 07:48:35;;;;;;;21.57;14.37;;;6.60;99.90;;;;;;6334095;22;20178;-52
2022/01/18 07:51:00;;;;;;;19.10;12.87;;;6.60;99.90;;;;;;6344055;22;20167;-52
2022/01/18 07:53:26;;;;;;;21.40;14.53;;;6.40;99.90;;;;;;6343358;22;21040;-51
2022/01/18 07:55:52;;;;;;;21.03;14.10;;;6.70;99.90;;;;;;6343833;22;20166;-52
2022/01/18 07:58:18;;;;;;;19.83;13.27;;;6.60;99.90;;;;;;6334097;22;20186;-52
2022/01/18 08:00:47;;;;;;;17.85;12.93;;;6.90;99.90;;;;;;6341989;22;20228;-51
2022/01/18 08:03:13;;;;;;;18.52;13.13;;;7.00;99.90;;;;;;6329318;22;20656;-53
2022/01/18 08:05:39;;;;;;;19.45;14.20;;;6.80;99.90;;;;;;6343123;22;20189;-50
2022/01/18 08:08:05;;;;;;;19.13;13.70;;;7.20;99.90;;;;;;6344596;22;20182;-53
2022/01/18 08:10:31;;;;;;;21.52;13.98;;;7.20;99.90;;;;;;6338114;22;20205;-54
2022/01/18 08:13:01;;;;;;;22.85;15.35;;;7.20;99.90;;;;;;6344221;22;20139;-51
2022/01/18 08:15:36;;;;;;;23.05;14.48;;;6.40;99.90;;;;;;6343836;22;20781;-52
2022/01/18 08:18:02;;;;;;;22.15;13.27;;;6.60;99.90;;;;;;6343685;22;20210;-52
2022/01/18 08:20:28;;;;;;;21.35;13.50;;;6.80;99.90;;;;;;6343928;22;20194;-52
2022/01/18 08:22:54;;;;;;;18.13;11.97;;;6.70;99.90;;;;;;6334915;22;20146;-51
2022/01/18 08:25:19;;;;;;;16.43;13.33;;;6.40;99.90;;;;;;6345901;22;20151;-57
2022/01/18 08:27:45;;;;;;;19.23;12.83;;;6.60;99.90;;;;;;6345030;22;20692;-51
2022/01/18 08:30:13;;;;;;;18.50;13.03;;;6.80;99.90;;;;;;6341106;22;20488;-52
2022/01/18 08:32:38;;;;;;;18.38;11.75;;;6.80;99.90;;;;;;6332547;22;20409;-52
2022/01/18 08:35:05;;;;;;;16.47;13.20;;;6.80;99.90;;;;;;6345331;22;20143;-52
2022/01/18 08:37:31;;;;;;;16.77;12.95;;;7.00;99.90;;;;;;6342775;22;20456;-52
2022/01/18 08:39:57;;;;;;;18.05;13.45;;;7.00;99.90;;;;;;6343684;22;20242;-52
2022/01/18 08:42:23;;;;;;;17.87;12.47;;;6.90;99.90;;;;;;6344018;22;20178;-53
2022/01/18 08:44:49;;;;;;;18.60;12.25;;;6.90;99.90;;;;;;6342247;22;20174;-52
2022/01/18 08:47:16;;;;;;;18.70;12.10;;;7.00;99.90;;;;;;6341824;22;20182;-52
2022/01/18 08:49:42;;;;;;;17.73;13.05;;;7.10;99.90;;;;;;6344150;22;20586;-52
2022/01/18 08:52:08;;;;;;;16.20;11.50;;;7.20;99.90;;;;;;6345037;22;20227;-50
2022/01/18 08:54:34;;;;;;;18.58;13.30;;;7.30;99.90;;;;;;6346648;22;20657;-51
2022/01/18 08:57:01;;;;;;;19.57;13.13;;;7.60;99.90;;;;;;6345580;22;20225;-50
2022/01/18 08:59:26;;;;;;;17.85;13.52;;;7.20;99.90;;;;;;6347841;22;20212;-50
2022/01/18 09:01:52;;;;;;;19.30;14.20;;;7.00;99.90;;;;;;6346830;22;20159;-50
2022/01/18 09:04:22;;;;;;;21.00;15.10;;;7.00;99.90;;;;;;6346029;22;20616;-50
2022/01/18 09:06:50;;;;;;;18.40;13.40;;;7.00;99.90;;;;;;6335166;22;20401;-51
2022/01/18 09:09:17;;;;;;;17.80;13.23;;;7.20;99.90;;;;;;6345503;22;20438;-51
2022/01/18 09:11:45;;;;;;;20.27;12.90;;;7.20;99.90;;;;;;6345681;22;20139;-50
2022/01/18 09:14:15;;;;;;;20.58;13.55;;;7.10;99.90;;;;;;6336743;22;20151;-50
2022/01/18 09:16:42;;;;;;;20.85;13.05;;;7.30;99.90;;;;;;6345093;22;20131;-51
2022/01/18 09:19:08;;;;;;;20.38;14.60;;;7.10;99.90;;;;;;6346179;22;20150;-52
2022/01/18 09:21:34;;;;;;;18.73;13.57;;;7.30;99.90;;;;;;6346205;22;20250;-51
2022/01/18 09:24:01;;;;;;;18.33;13.55;;;7.80;99.90;;;;;;6346301;22;20151;-51
2022/01/18 09:26:27;;;;;;;20.30;13.73;;;7.60;99.90;;;;;;6344200;22;20263;-51
2022/01/18 09:28:53;;;;;;;16.75;12.95;;;7.70;99.90;;;;;;6345689;22;20188;-51
2022/01/18 09:31:19;;;;;;;18.43;13.60;;;8.40;99.90;;;;;;6343221;22;20283;-52
2022/01/18 09:33:45;;;;;;;18.45;14.10;;;8.80;99.90;;;;;;6346960;22;20367;-52
2022/01/18 09:36:11;;;;;;;16.37;13.30;;;8.90;99.90;;;;;;6347484;22;20148;-53
2022/01/18 09:38:37;;;;;;;18.05;13.63;;;9.20;99.90;;;;;;6346328;22;20393;-53
2022/01/18 09:41:09;;;;;;;18.70;13.77;;;9.70;99.90;;;;;;6343806;22;20167;-52
2022/01/18 09:43:38;;;;;;;16.33;13.07;;;9.30;99.90;;;;;;6346143;22;20139;-52
2022/01/18 09:46:05;;;;;;;22.40;16.85;;;9.80;99.90;;;;;;6340429;22;20155;-52
2022/01/18 09:48:32;;;;;;;16.35;11.70;;;10.50;99.90;;;;;;6345419;22;20179;-52
2022/01/18 09:51:01;;;;;;;17.65;12.70;;;10.20;99.90;;;;;;6345776;22;20317;-52
2022/01/18 09:53:27;;;;;;;16.77;12.85;;;10.10;99.90;;;;;;6346867;22;20151;-51
2022/01/18 09:55:53;;;;;;;20.30;13.70;;;9.70;99.90;;;;;;6346906;22;20147;-50
2022/01/18 09:58:20;;;;;;;17.20;12.65;;;8.90;99.90;;;;;;6344636;22;20381;-50
2022/01/18 10:00:46;;;;;;;18.35;13.40;;;9.30;99.90;;;;;;6330784;22;20258;-51
2022/01/18 10:03:29;;;;;;;16.60;12.60;;;8.80;99.90;;;;;;6344824;22;20154;-53
2022/01/18 10:05:55;;;;;;;19.58;13.70;;;8.60;99.90;;;;;;6346399;22;20181;-51
2022/01/18 10:08:21;;;;;;;18.67;12.05;;;8.20;99.90;;;;;;6345146;22;20167;-51
2022/01/18 10:10:53;;;;;;;19.73;13.60;;;8.10;99.90;;;;;;6335195;22;20231;-50
2022/01/18 10:13:26;;;;;;;17.77;11.77;;;8.10;99.90;;;;;;6344545;22;20176;-50
2022/01/18 10:16:15;;;;;;;17.23;12.30;;;8.60;99.90;;;;;;6344604;22;20219;-51
2022/01/18 10:18:49;;;;;;;14.25;11.23;;;9.00;99.90;;;;;;6344973;22;20143;-50
2022/01/18 10:21:39;;;;;;;13.40;9.65;;;9.50;99.90;;;;;;6346365;22;20162;-51
2022/01/18 10:24:20;;;;;;;12.50;9.35;;;9.30;99.90;;;;;;6345844;22;20140;-51
2022/01/18 10:26:48;;;;;;;15.45;9.27;;;9.20;99.90;;;;;;6344705;22;20143;-51
2022/01/18 10:29:16;;;;;;;11.95;8.75;;;9.20;99.90;;;;;;6335191;22;20182;-52
2022/01/18 10:31:55;;;;;;;15.95;10.75;;;9.20;99.90;;;;;;6345396;22;20242;-51
2022/01/18 10:34:43;;;;;;;16.05;9.70;;;9.30;99.90;;;;;;6332841;22;20590;-52
2022/01/18 10:37:17;;;;;;;16.40;9.85;;;10.10;99.90;;;;;;6341155;22;20625;-51
2022/01/18 10:39:55;;;;;;;13.77;8.93;;;10.50;99.60;;;;;;6334956;22;20644;-53
2022/01/18 10:42:32;;;;;;;16.67;9.18;;;10.90;99.10;;;;;;6330154;22;20184;-51
2022/01/18 10:45:37;;;;;;;12.73;8.80;;;11.40;97.60;;;;;;6330810;22;20154;-52
2022/01/18 10:48:10;;;;;;;10.95;8.73;;;12.10;95.90;;;;;;6333713;22;20190;-53
2022/01/18 10:50:39;;;;;;;16.40;10.45;;;12.70;94.10;;;;;;6345934;22;20212;-52
2022/01/18 10:53:20;;;;;;;16.75;10.55;;;12.80;93.60;;;;;;6335679;22;20229;-53
2022/01/18 10:55:48;;;;;;;12.63;9.93;;;13.00;93.40;;;;;;6344388;22;20169;-53
2022/01/18 10:58:18;;;;;;;13.73;10.20;;;12.70;92.50;;;;;;6345713;22;20228;-52
2022/01/18 11:00:44;;;;;;;12.40;9.68;;;13.40;92.30;;;;;;6344040;22;20651;-53
2022/01/18 11:03:10;;;;;;;13.57;10.80;;;13.60;91.30;;;;;;6346066;22;20151;-52
2022/01/18 11:05:38;;;;;;;13.20;10.30;;;13.40;91.60;;;;;;6345396;22;20616;-53
2022/01/18 11:08:06;;;;;;;12.90;10.45;;;13.90;91.50;;;;;;6345309;22;20500;-53
2022/01/18 11:10:50;;;;;;;11.63;9.75;;;13.70;90.90;;;;;;6344466;22;20189;-52
2022/01/18 11:13:23;;;;;;;13.93;9.80;;;13.40;91.70;;;;;;6346001;22;20132;-52
2022/01/18 11:15:52;;;;;;;14.10;9.90;;;12.70;91.90;;;;;;6331998;22;20171;-51
2022/01/18 11:18:29;;;;;;;12.25;10.13;;;12.40;92.30;;;;;;6345657;22;20600;-52
2022/01/18 11:20:56;;;;;;;12.98;9.40;;;11.60;93.90;;;;;;6345627;22;20503;-52
2022/01/18 11:23:23;;;;;;;11.95;9.38;;;11.30;94.50;;;;;;6343838;22;20153;-51
2022/01/18 11:25:52;;;;;;;13.20;8.30;;;10.20;96.20;;;;;;6346120;22;20208;-52
2022/01/18 11:28:18;;;;;;;13.55;9.07;;;9.90;98.00;;;;;;6345268;22;20201;-52
2022/01/18 11:30:46;;;;;;;14.70;9.07;;;9.40;98.50;;;;;;6343622;22;20175;-52
2022/01/18 11:33:18;;;;;;;11.93;8.98;;;9.20;98.90;;;;;;6335571;22;20844;-52
2022/01/18 11:36:00;;;;;;;11.95;8.82;;;9.50;99.60;;;;;;6345589;22;20847;-51
2022/01/18 11:38:39;;;;;;;14.32;8.70;;;9.10;99.60;;;;;;6338212;22;20165;-52
2022/01/18 11:41:06;;;;;;;9.13;7.50;;;9.10;99.90;;;;;;6344685;22;20171;-52
2022/01/18 11:43:45;;;;;;;11.02;7.88;;;8.80;99.90;;;;;;6333430;22;20155;-55
2022/01/18 11:46:38;;;;;;;13.60;8.95;;;8.50;99.90;;;;;;6328606;22;20518;-52
2022/01/18 11:49:07;;;;;;;13.48;9.75;;;8.50;99.90;;;;;;6329460;22;20263;-51
2022/01/18 11:51:48;;;;;;;9.38;7.30;;;8.20;99.90;;;;;;6344543;22;20174;-53
2022/01/18 11:55:10;;;;;;;12.57;7.97;;;8.40;99.90;;;;;;6345109;22;20127;-52
2022/01/18 11:57:29;;;;;;;11.45;7.60;;;7.80;99.90;;;;;;6327303;22;20234;-52
2022/01/18 12:00:07;;;;;;;10.88;7.88;;;8.00;99.90;;;;;;6343883;22;20482;-51
2022/01/18 12:02:41;;;;;;;8.93;6.85;;;8.40;99.90;;;;;;6343203;22;20151;-51
2022/01/18 12:05:24;;;;;;;9.05;6.05;;;8.60;99.90;;;;;;6333686;22;20143;-51
2022/01/18 12:07:59;;;;;;;8.48;6.05;;;8.80;99.90;;;;;;6343679;22;20170;-53
2022/01/18 12:12:58;;;;;;;9.38;5.80;;;9.30;99.50;;;;;;6344159;22;20151;-51
2022/01/18 12:15:24;;;;;;;6.22;4.53;;;9.70;99.10;;;;;;6343887;22;20154;-52
2022/01/18 12:18:04;;;;;;;8.73;6.03;;;9.90;97.60;;;;;;6340839;22;20152;-52
2022/01/18 12:20:35;;;;;;;10.77;7.22;;;10.00;97.60;;;;;;6344507;22;20203;-51
2022/01/18 12:23:08;;;;;;;11.77;7.95;;;9.80;99.70;;;;;;6344539;22;20170;-51
2022/01/18 12:25:37;;;;;;;12.93;6.93;;;9.50;99.90;;;;;;6343176;22;20148;-52
2022/01/18 12:31:53;;;;;;;14.15;9.30;;;8.90;99.90;;;;;;6343907;22;20171;-52
2022/01/18 12:34:29;;;;;;;7.68;6.15;;;8.30;99.90;;;;;;6344996;22;20127;-52
2022/01/18 12:36:58;;;;;;;12.80;8.55;;;8.50;99.90;;;;;;6343837;22;20147;-51
2022/01/18 12:39:24;;;;;;;13.15;7.95;;;8.50;99.90;;;;;;6344979;22;20196;-52
2022/01/18 12:41:54;;;;;;;9.20;6.37;;;8.00;99.90;;;;;;6330216;22;20570;-53
2022/01/18 12:44:22;;;;;;;9.95;7.22;;;8.50;99.90;;;;;;6345567;22;20199;-51
2022/01/18 12:47:00;;;;;;;7.68;6.07;;;8.50;99.90;;;;;;6343053;22;20155;-53
2022/01/18 12:49:27;;;;;;;7.72;5.80;;;8.40;99.90;;;;;;6344972;22;20151;-52
2022/01/18 12:52:00;;;;;;;8.05;5.72;;;8.40;99.90;;;;;;6341157;22;20609;-52
2022/01/18 12:54:36;;;;;;;7.32;5.70;;;7.90;99.90;;;;;;6334933;22;20485;-52
2022/01/18 12:57:16;;;;;;;6.88;5.78;;;8.60;99.90;;;;;;6332786;22;20154;-51
2022/01/18 13:00:01;;;;;;;10.05;6.50;;;8.80;99.90;;;;;;6334042;22;20174;-52
2022/01/18 13:02:27;;;;;;;6.80;4.57;;;8.50;99.90;;;;;;6341203;22;20581;-52
2022/01/18 13:05:05;;;;;;;6.32;4.60;;;8.60;99.90;;;;;;6342239;22;20191;-52
2022/01/18 13:07:31;;;;;;;5.20;4.40;;;8.40;99.90;;;;;;6333441;22;20179;-52
2022/01/18 13:10:04;;;;;;;5.10;4.17;;;8.50;99.90;;;;;;6343604;22;20197;-51
2022/01/18 13:12:30;;;;;;;8.43;4.50;;;8.10;99.90;;;;;;6341019;22;20147;-53
2022/01/18 13:14:57;;;;;;;7.10;4.85;;;8.20;99.90;;;;;;6344735;22;20162;-52
2022/01/18 13:23:24;;;;;;;4.00;3.45;;;8.20;99.90;;;;;;6344861;22;20445;-52
2022/01/18 13:25:55;;;;;;;8.27;3.85;;;8.10;99.90;;;;;;6343891;22;20588;-51
2022/01/18 13:28:32;;;;;;;7.10;4.47;;;7.90;99.90;;;;;;6343739;22;20170;-51
2022/01/18 13:31:16;;;;;;;5.43;3.63;;;7.90;99.90;;;;;;6338027;22;20169;-52
2022/01/18 13:34:11;;;;;;;4.43;4.03;;;8.00;99.90;;;;;;6343840;22;20170;-52
2022/01/18 13:36:58;;;;;;;5.40;4.13;;;8.10;99.90;;;;;;6331336;22;20174;-52
2022/01/18 13:39:31;;;;;;;5.43;4.05;;;7.90;99.90;;;;;;6343105;22;20134;-52
2022/01/18 13:41:59;;;;;;;7.30;4.00;;;7.90;99.90;;;;;;6343948;22;20670;-52
2022/01/18 13:44:26;;;;;;;5.32;3.72;;;7.90;99.90;;;;;;6344146;22;20143;-52
2022/01/18 13:46:52;;;;;;;5.05;3.72;;;7.90;99.90;;;;;;6344815;22;20150;-51
2022/01/18 13:49:23;;;;;;;4.38;3.25;;;7.80;99.90;;;;;;6345480;22;20691;-54
2022/01/18 13:52:17;;;;;;;5.85;4.43;;;8.00;99.90;;;;;;6342287;22;20214;-51
2022/01/18 13:54:50;;;;;;;6.80;5.00;;;7.90;99.90;;;;;;6344712;22;20144;-54
2022/01/18 13:57:18;;;;;;;5.47;3.65;;;8.10;99.90;;;;;;6335396;22;20154;-52
2022/01/18 13:59:45;;;;;;;6.95;3.60;;;7.50;99.90;;;;;;6335658;22;20178;-52
2022/01/18 14:02:20;;;;;;;6.45;4.50;;;7.70;99.90;;;;;;6342966;22;20175;-52
2022/01/18 14:04:48;;;;;;;8.63;3.90;;;7.70;99.90;;;;;;6346026;22;20135;-52
2022/01/18 14:07:14;;;;;;;5.28;4.03;;;7.90;99.90;;;;;;6345274;22;20205;-51
2022/01/18 14:09:40;;;;;;;6.45;4.28;;;7.60;99.90;;;;;;6343044;22;20635;-52